Time;durP1;ratioP1;P1;durP2;ratioP2;P2;SDS_P1;SDS_P2;PMS_P1;PMS_P2;Temp;Humidity;BMP_temperature;BMP_pressure;BME280_temperature;BME280_humidity;BME280_pressure;Samples;Min_cycle;Max_cycle;Signal;HPM_P1;HPM_P2
2021/08/08 00:00:26;;;;;;;1.50;0.60;;;15.00;95.10;;;;;;4994667;28;20030;-68
2021/08/08 00:02:52;;;;;;;1.88;0.80;;;15.00;95.10;;;;;;4991029;28;20018;-68
2021/08/08 00:05:18;;;;;;;0.70;0.70;;;14.90;95.10;;;;;;4988514;28;20030;-69
2021/08/08 00:07:43;;;;;;;1.67;0.88;;;14.90;95.10;;;;;;4992460;28;20703;-68
2021/08/08 00:10:12;;;;;;;2.85;0.90;;;14.90;95.10;;;;;;4975341;28;20027;-68
2021/08/08 00:12:38;;;;;;;3.95;0.73;;;14.90;95.00;;;;;;4988636;28;20412;-68
2021/08/08 00:15:05;;;;;;;2.85;0.75;;;14.90;95.00;;;;;;4988725;28;20030;-68
2021/08/08 00:17:31;;;;;;;1.80;0.80;;;14.90;95.00;;;;;;4988744;28;20049;-68
2021/08/08 00:19:57;;;;;;;1.70;0.60;;;14.90;95.00;;;;;;4993076;28;20028;-68
2021/08/08 00:22:22;;;;;;;1.02;0.63;;;14.90;95.00;;;;;;4987001;28;20895;-68
2021/08/08 00:24:48;;;;;;;0.90;0.70;;;14.90;95.00;;;;;;4963553;28;20066;-68
2021/08/08 00:27:13;;;;;;;0.70;0.70;;;14.90;95.00;;;;;;4993564;28;20506;-68
2021/08/08 00:29:39;;;;;;;0.85;0.70;;;14.90;95.10;;;;;;4992283;28;20033;-68
2021/08/08 00:32:05;;;;;;;1.77;0.68;;;14.90;95.00;;;;;;4990121;28;20077;-68
2021/08/08 00:34:31;;;;;;;0.82;0.80;;;14.90;95.00;;;;;;4990883;28;20080;-68
2021/08/08 00:36:57;;;;;;;1.75;0.70;;;14.90;95.00;;;;;;4990762;28;20026;-68
2021/08/08 00:39:23;;;;;;;2.70;0.82;;;14.90;95.10;;;;;;4990233;28;20034;-68
2021/08/08 00:41:49;;;;;;;2.20;0.70;;;14.80;95.00;;;;;;4988749;28;20446;-68
2021/08/08 00:44:14;;;;;;;1.42;0.75;;;14.80;95.00;;;;;;4992512;28;20126;-68
2021/08/08 00:46:40;;;;;;;1.17;0.82;;;14.80;95.10;;;;;;4991257;28;20113;-69
2021/08/08 00:49:06;;;;;;;2.92;0.80;;;14.80;95.10;;;;;;4986325;28;20039;-68
2021/08/08 00:51:32;;;;;;;4.25;0.93;;;14.80;95.10;;;;;;4988245;28;20027;-68
2021/08/08 00:53:58;;;;;;;3.28;0.80;;;14.80;95.10;;;;;;4986339;28;20022;-68
2021/08/08 00:56:23;;;;;;;1.67;0.80;;;14.80;95.10;;;;;;4989352;28;20062;-68
2021/08/08 00:58:49;;;;;;;4.13;0.73;;;14.80;95.10;;;;;;4992372;28;20438;-68
2021/08/08 01:01:17;;;;;;;3.70;0.98;;;14.80;95.10;;;;;;4990403;28;20034;-68
2021/08/08 01:03:44;;;;;;;1.75;0.90;;;14.80;95.00;;;;;;4990239;28;20030;-68
2021/08/08 01:06:20;;;;;;;3.80;1.00;;;14.80;95.10;;;;;;4990519;28;20061;-68
2021/08/08 01:08:53;;;;;;;0.77;0.77;;;14.80;95.10;;;;;;4991418;28;20505;-68
2021/08/08 01:11:20;;;;;;;1.05;0.80;;;14.80;95.10;;;;;;4988521;28;20031;-68
2021/08/08 01:13:47;;;;;;;1.90;1.10;;;14.70;95.10;;;;;;4990726;28;20053;-68
2021/08/08 01:16:16;;;;;;;1.70;0.70;;;14.70;95.00;;;;;;4991575;28;20034;-68
2021/08/08 01:18:43;;;;;;;2.28;1.05;;;14.70;95.10;;;;;;4989176;28;20026;-68
2021/08/08 01:21:09;;;;;;;1.42;0.80;;;14.70;95.10;;;;;;4991411;28;20030;-68
2021/08/08 01:23:36;;;;;;;1.85;0.70;;;14.60;95.00;;;;;;4992056;28;20498;-68
2021/08/08 01:26:02;;;;;;;1.83;0.93;;;14.60;95.00;;;;;;4974218;28;20030;-68
2021/08/08 01:28:27;;;;;;;3.60;1.05;;;14.60;95.10;;;;;;4992664;28;20022;-68
2021/08/08 01:30:53;;;;;;;2.17;0.60;;;14.60;95.10;;;;;;4992346;28;20739;-68
2021/08/08 01:33:18;;;;;;;1.02;0.68;;;14.60;95.00;;;;;;4989318;28;20027;-69
2021/08/08 01:35:44;;;;;;;0.63;0.63;;;14.60;95.00;;;;;;4991197;28;20438;-68
2021/08/08 01:38:10;;;;;;;1.20;0.60;;;14.50;95.00;;;;;;4990140;28;20034;-68
2021/08/08 01:40:53;;;;;;;1.40;0.80;;;14.60;95.00;;;;;;4990069;28;20037;-68
2021/08/08 01:43:25;;;;;;;1.90;0.70;;;14.50;95.30;;;;;;4986547;28;20080;-68
2021/08/08 01:45:54;;;;;;;3.60;0.80;;;14.60;95.00;;;;;;4989042;28;20419;-68
2021/08/08 01:48:22;;;;;;;3.05;0.90;;;14.50;95.00;;;;;;4976003;28;20111;-68
2021/08/08 01:50:49;;;;;;;0.80;0.80;;;14.60;95.00;;;;;;4982872;28;20428;-68
2021/08/08 01:53:15;;;;;;;3.33;0.55;;;14.50;94.90;;;;;;4986799;28;20097;-68
2021/08/08 01:55:41;;;;;;;0.50;0.50;;;14.50;94.90;;;;;;4989901;28;20026;-68
2021/08/08 01:58:09;;;;;;;4.72;0.70;;;14.50;94.90;;;;;;4989798;28;20133;-68
2021/08/08 02:00:34;;;;;;;1.83;0.70;;;14.50;94.90;;;;;;4989872;28;20022;-68
2021/08/08 02:03:00;;;;;;;1.55;0.57;;;14.40;94.90;;;;;;4990767;28;20117;-68
2021/08/08 02:05:31;;;;;;;2.05;0.60;;;14.40;94.90;;;;;;4986868;28;20109;-68
2021/08/08 02:07:57;;;;;;;0.65;0.50;;;14.40;94.90;;;;;;4973171;28;20467;-68
2021/08/08 02:10:23;;;;;;;0.93;0.55;;;14.40;94.90;;;;;;4988777;28;20034;-68
2021/08/08 02:12:48;;;;;;;0.70;0.60;;;14.40;94.90;;;;;;4989603;28;20106;-68
2021/08/08 02:15:14;;;;;;;2.25;0.65;;;14.40;94.90;;;;;;4989842;28;20478;-68
2021/08/08 02:17:41;;;;;;;1.08;0.60;;;14.40;94.90;;;;;;4990599;28;20038;-68
2021/08/08 02:20:10;;;;;;;1.77;0.68;;;14.40;94.90;;;;;;4988406;28;20049;-68
2021/08/08 02:22:36;;;;;;;1.30;0.65;;;14.40;94.90;;;;;;4989142;28;20026;-68
2021/08/08 02:25:03;;;;;;;2.45;0.50;;;14.40;94.90;;;;;;4987874;28;20048;-68
2021/08/08 02:27:28;;;;;;;1.00;0.55;;;14.40;95.00;;;;;;4990460;28;20133;-68
2021/08/08 02:29:54;;;;;;;1.98;0.77;;;14.40;95.00;;;;;;4990010;28;20046;-68
2021/08/08 02:32:20;;;;;;;0.65;0.63;;;14.40;94.90;;;;;;4988045;28;20042;-69
2021/08/08 02:34:45;;;;;;;2.13;0.70;;;14.40;94.90;;;;;;4967725;28;20027;-68
2021/08/08 02:37:11;;;;;;;1.38;0.50;;;14.40;94.90;;;;;;4977652;28;20041;-68
2021/08/08 02:39:36;;;;;;;0.63;0.60;;;14.30;94.90;;;;;;4986564;28;20039;-68
2021/08/08 02:42:02;;;;;;;7.47;1.00;;;14.30;94.90;;;;;;4988544;28;20387;-69
2021/08/08 02:44:28;;;;;;;2.35;0.65;;;14.40;94.90;;;;;;4987322;28;20101;-69
2021/08/08 02:46:53;;;;;;;0.68;0.65;;;14.40;94.90;;;;;;4987986;28;20030;-69
2021/08/08 02:49:19;;;;;;;1.45;0.88;;;14.30;94.80;;;;;;4984410;28;20026;-68
2021/08/08 02:51:45;;;;;;;2.05;0.60;;;14.30;94.80;;;;;;4991098;28;20034;-68
2021/08/08 02:54:14;;;;;;;3.35;0.60;;;14.30;94.80;;;;;;4989144;28;20137;-68
2021/08/08 02:56:40;;;;;;;1.45;0.70;;;14.30;94.80;;;;;;4981900;28;20031;-68
2021/08/08 02:59:06;;;;;;;4.53;0.77;;;14.30;94.80;;;;;;4987188;28;20105;-68
2021/08/08 03:01:31;;;;;;;0.50;0.50;;;14.30;94.80;;;;;;4987752;28;20452;-68
2021/08/08 03:03:57;;;;;;;0.77;0.70;;;14.30;94.70;;;;;;4988178;28;20034;-68
2021/08/08 03:06:22;;;;;;;2.28;0.63;;;14.30;94.70;;;;;;4988138;28;20042;-68
2021/08/08 03:08:48;;;;;;;1.65;0.70;;;14.30;94.80;;;;;;4987668;28;20026;-68
2021/08/08 03:11:14;;;;;;;1.98;0.60;;;14.30;94.80;;;;;;4989369;28;20026;-68
2021/08/08 03:13:39;;;;;;;1.95;0.60;;;14.20;94.80;;;;;;4984201;28;20065;-68
2021/08/08 03:16:05;;;;;;;1.42;0.68;;;14.30;94.80;;;;;;4986903;28;20502;-69
2021/08/08 03:18:31;;;;;;;1.35;0.60;;;14.20;94.80;;;;;;4971867;28;21358;-69
2021/08/08 03:20:57;;;;;;;3.38;0.60;;;14.20;94.80;;;;;;4990237;28;20407;-69
2021/08/08 03:23:23;;;;;;;3.60;0.60;;;14.30;94.80;;;;;;4991046;28;20026;-68
2021/08/08 03:25:48;;;;;;;3.10;0.70;;;14.20;94.80;;;;;;4986026;28;20081;-70
2021/08/08 03:28:14;;;;;;;1.73;0.70;;;14.20;94.80;;;;;;4989597;28;20419;-68
2021/08/08 03:30:39;;;;;;;2.60;0.70;;;14.20;94.80;;;;;;4990650;28;20046;-69
2021/08/08 03:33:05;;;;;;;3.58;0.80;;;14.20;94.80;;;;;;4986066;28;20041;-68
2021/08/08 03:35:31;;;;;;;0.88;0.70;;;14.20;94.80;;;;;;4986604;28;20030;-69
2021/08/08 03:37:57;;;;;;;1.17;0.60;;;14.20;94.90;;;;;;4983537;28;20542;-69
2021/08/08 03:40:22;;;;;;;2.58;0.80;;;14.20;94.90;;;;;;4989022;28;20034;-68
2021/08/08 03:42:48;;;;;;;0.50;0.47;;;14.20;94.90;;;;;;4988425;28;20030;-69
2021/08/08 03:45:13;;;;;;;2.35;0.70;;;14.20;94.90;;;;;;4987454;28;20117;-68
2021/08/08 03:47:39;;;;;;;1.85;0.70;;;14.20;94.90;;;;;;4988816;28;20080;-68
2021/08/08 03:50:05;;;;;;;0.93;0.68;;;14.20;94.90;;;;;;4980597;28;20034;-67
2021/08/08 03:52:31;;;;;;;1.92;0.65;;;14.10;94.90;;;;;;4986824;28;20049;-68
2021/08/08 03:54:56;;;;;;;0.60;0.60;;;14.10;94.90;;;;;;4983118;28;20026;-69
2021/08/08 03:57:22;;;;;;;1.05;0.70;;;14.10;94.90;;;;;;4983876;28;20085;-67
2021/08/08 03:59:47;;;;;;;1.67;0.70;;;14.10;95.00;;;;;;4972417;28;20026;-68
2021/08/08 04:02:13;;;;;;;2.35;0.90;;;14.10;95.00;;;;;;4990149;28;20038;-68
2021/08/08 04:04:38;;;;;;;1.05;0.75;;;14.10;95.00;;;;;;4987569;28;20030;-70
2021/08/08 04:07:04;;;;;;;0.60;0.60;;;14.10;95.00;;;;;;4988265;28;20023;-68
2021/08/08 04:09:29;;;;;;;0.80;0.75;;;14.10;95.10;;;;;;4990156;28;20537;-68
2021/08/08 04:11:55;;;;;;;2.35;0.77;;;14.10;95.10;;;;;;4973632;28;20030;-68
2021/08/08 04:14:21;;;;;;;1.70;0.80;;;14.10;95.10;;;;;;4988435;28;20038;-69
2021/08/08 04:16:46;;;;;;;2.15;1.00;;;14.10;95.10;;;;;;4988725;28;20038;-68
2021/08/08 04:19:12;;;;;;;2.03;0.70;;;14.10;95.10;;;;;;4989641;28;20479;-68
2021/08/08 04:21:37;;;;;;;1.05;0.80;;;14.10;95.10;;;;;;4988268;28;20491;-69
2021/08/08 04:24:03;;;;;;;4.32;0.75;;;14.00;95.10;;;;;;4987366;28;20026;-69
2021/08/08 04:26:28;;;;;;;1.63;0.70;;;14.10;95.10;;;;;;4985791;28;20117;-69
2021/08/08 04:28:54;;;;;;;3.83;0.80;;;14.00;95.10;;;;;;4987587;28;20034;-68
2021/08/08 04:31:20;;;;;;;4.18;1.20;;;14.10;95.10;;;;;;4990605;28;20049;-68
2021/08/08 04:33:45;;;;;;;1.42;0.90;;;14.00;95.10;;;;;;4971003;28;20046;-68
2021/08/08 04:36:11;;;;;;;3.72;1.13;;;14.00;95.10;;;;;;4988696;28;20031;-68
2021/08/08 04:38:36;;;;;;;3.90;0.98;;;14.00;95.20;;;;;;4988280;28;20093;-67
2021/08/08 04:41:02;;;;;;;2.50;1.00;;;14.00;95.10;;;;;;4992505;28;20022;-68
2021/08/08 04:43:28;;;;;;;1.98;1.05;;;14.00;95.10;;;;;;4993545;28;20594;-68
2021/08/08 04:45:54;;;;;;;1.73;0.95;;;14.00;95.20;;;;;;4991606;28;20117;-68
2021/08/08 04:50:47;;;;;;;1.38;1.02;;;14.00;95.20;;;;;;4984302;28;20159;-68
2021/08/08 04:53:17;;;;;;;3.08;0.93;;;14.00;95.20;;;;;;4985726;28;20062;-68
2021/08/08 04:55:44;;;;;;;1.67;1.10;;;14.00;95.20;;;;;;4994495;28;20106;-68
2021/08/08 04:58:10;;;;;;;3.85;0.77;;;14.00;95.30;;;;;;4991808;28;20034;-68
2021/08/08 05:00:36;;;;;;;2.40;0.90;;;14.00;95.30;;;;;;4990792;28;20046;-68
2021/08/08 05:03:02;;;;;;;2.28;0.90;;;14.10;95.30;;;;;;4984046;28;20113;-67
2021/08/08 05:05:28;;;;;;;2.72;1.48;;;14.10;95.30;;;;;;4990447;28;20041;-66
2021/08/08 05:07:54;;;;;;;2.58;1.15;;;14.10;95.30;;;;;;4988658;28;20030;-66
2021/08/08 05:10:24;;;;;;;1.50;1.05;;;14.10;95.30;;;;;;4990101;28;20057;-66
2021/08/08 05:12:50;;;;;;;2.72;1.00;;;14.10;95.30;;;;;;4992350;28;20045;-66
2021/08/08 05:15:15;;;;;;;3.08;0.90;;;14.20;95.60;;;;;;4990304;28;20041;-66
2021/08/08 05:17:41;;;;;;;1.42;0.93;;;14.20;95.30;;;;;;4991106;28;20029;-66
2021/08/08 05:20:08;;;;;;;1.17;0.88;;;14.20;95.30;;;;;;4991581;28;20027;-66
2021/08/08 05:22:33;;;;;;;2.67;0.93;;;14.20;95.30;;;;;;4989211;28;20674;-64
2021/08/08 05:24:59;;;;;;;2.38;0.80;;;14.20;95.20;;;;;;4985998;28;20109;-66
2021/08/08 05:27:25;;;;;;;2.33;1.00;;;14.30;95.30;;;;;;4996452;28;20105;-67
2021/08/08 05:29:50;;;;;;;2.53;0.90;;;14.30;95.30;;;;;;4989726;28;20479;-70
2021/08/08 05:32:16;;;;;;;3.35;0.73;;;14.30;95.20;;;;;;4990454;28;20027;-66
2021/08/08 05:34:41;;;;;;;3.03;0.68;;;14.30;95.30;;;;;;4989193;28;20054;-65
2021/08/08 05:37:07;;;;;;;2.58;0.70;;;14.30;95.20;;;;;;4984415;28;20494;-67
2021/08/08 05:39:33;;;;;;;5.78;1.00;;;14.40;95.20;;;;;;4989994;28;20027;-65
2021/08/08 05:41:58;;;;;;;2.13;0.85;;;14.40;95.20;;;;;;4992758;28;20040;-66
2021/08/08 05:44:24;;;;;;;1.35;0.77;;;14.40;95.20;;;;;;4988037;28;20046;-66
2021/08/08 05:46:49;;;;;;;3.08;1.00;;;14.40;95.20;;;;;;4991705;28;20042;-67
2021/08/08 05:49:15;;;;;;;1.92;0.90;;;14.40;95.20;;;;;;4991615;28;20501;-66
2021/08/08 05:51:41;;;;;;;3.08;1.00;;;14.40;95.20;;;;;;4985833;28;20075;-65
2021/08/08 05:54:07;;;;;;;2.33;0.80;;;14.50;95.20;;;;;;4987365;28;20109;-66
2021/08/08 05:56:33;;;;;;;2.80;0.90;;;14.50;95.20;;;;;;4991740;28;20118;-65
2021/08/08 05:58:58;;;;;;;1.88;1.10;;;14.60;95.30;;;;;;5000798;28;20497;-66
2021/08/08 06:01:24;;;;;;;3.40;0.80;;;14.60;95.20;;;;;;4988250;28;20034;-66
2021/08/08 06:03:50;;;;;;;2.67;1.10;;;14.60;95.20;;;;;;4988920;28;20034;-67
2021/08/08 06:06:15;;;;;;;1.98;1.00;;;14.70;95.20;;;;;;4986822;28;20041;-70
2021/08/08 06:08:41;;;;;;;1.75;1.00;;;14.70;95.20;;;;;;4983966;28;20033;-65
2021/08/08 06:11:07;;;;;;;1.75;0.95;;;14.80;95.20;;;;;;4982011;28;20030;-66
2021/08/08 06:13:33;;;;;;;2.63;0.88;;;14.80;95.10;;;;;;4979852;28;20021;-67
2021/08/08 06:15:59;;;;;;;2.70;1.33;;;14.90;95.10;;;;;;4981471;28;20022;-67
2021/08/08 06:18:25;;;;;;;3.58;0.93;;;14.90;95.00;;;;;;4989217;28;20088;-66
2021/08/08 06:20:50;;;;;;;2.90;0.85;;;15.00;95.00;;;;;;4989401;28;20121;-69
2021/08/08 06:23:16;;;;;;;2.25;0.90;;;15.10;94.90;;;;;;4990270;28;20030;-69
2021/08/08 06:25:41;;;;;;;2.80;1.10;;;15.10;94.90;;;;;;4986774;28;20122;-67
2021/08/08 06:28:07;;;;;;;1.13;1.02;;;15.20;94.80;;;;;;4986017;28;20027;-66
2021/08/08 06:30:33;;;;;;;0.77;0.77;;;15.30;94.80;;;;;;4982370;28;20042;-67
2021/08/08 06:32:58;;;;;;;1.85;0.82;;;15.40;94.80;;;;;;4990029;28;20046;-69
2021/08/08 06:35:24;;;;;;;2.40;0.98;;;15.50;94.70;;;;;;4990432;28;20030;-70
2021/08/08 06:37:49;;;;;;;3.97;0.90;;;15.60;94.70;;;;;;4987853;28;20038;-66
2021/08/08 06:40:15;;;;;;;2.05;1.13;;;15.60;94.60;;;;;;4983742;28;20031;-66
2021/08/08 06:42:41;;;;;;;0.95;0.90;;;15.70;94.50;;;;;;4990241;28;20030;-68
2021/08/08 06:45:07;;;;;;;3.50;1.23;;;15.80;94.50;;;;;;4992007;28;20089;-69
2021/08/08 06:47:33;;;;;;;1.63;1.00;;;15.90;94.50;;;;;;4989169;28;20049;-65
2021/08/08 06:49:58;;;;;;;2.92;0.95;;;16.00;94.50;;;;;;4990839;28;20284;-67
2021/08/08 06:52:24;;;;;;;3.33;0.90;;;16.10;94.40;;;;;;4986465;28;20022;-67
2021/08/08 06:54:49;;;;;;;1.25;0.80;;;16.10;94.30;;;;;;4990723;28;20033;-67
2021/08/08 06:57:22;;;;;;;2.80;1.00;;;16.10;94.20;;;;;;4990765;28;20026;-67
2021/08/08 06:59:48;;;;;;;2.15;0.80;;;16.10;94.10;;;;;;4991664;28;20022;-67
2021/08/08 07:02:13;;;;;;;1.77;0.70;;;16.20;94.10;;;;;;4990159;28;20014;-66
2021/08/08 07:04:39;;;;;;;3.67;0.90;;;16.20;93.90;;;;;;4991260;28;20023;-69
2021/08/08 07:07:04;;;;;;;5.22;1.00;;;16.20;93.90;;;;;;4990153;28;20030;-66
2021/08/08 07:09:30;;;;;;;2.38;1.23;;;16.30;93.80;;;;;;4991243;28;20068;-67
2021/08/08 07:11:56;;;;;;;1.25;0.73;;;16.40;93.70;;;;;;4991026;28;20023;-67
2021/08/08 07:14:21;;;;;;;5.53;0.80;;;16.50;93.60;;;;;;4991549;28;20113;-70
2021/08/08 07:16:47;;;;;;;1.83;0.70;;;16.60;93.50;;;;;;4988848;28;20029;-66
2021/08/08 07:19:12;;;;;;;2.33;0.80;;;16.70;93.50;;;;;;4989151;28;20152;-65
2021/08/08 07:21:38;;;;;;;1.75;0.80;;;17.00;93.10;;;;;;4984662;28;20499;-66
2021/08/08 07:24:04;;;;;;;1.67;0.70;;;17.30;92.80;;;;;;4990148;28;20471;-65
2021/08/08 07:26:29;;;;;;;1.98;0.60;;;17.70;92.50;;;;;;4989692;28;20145;-65
2021/08/08 07:28:55;;;;;;;1.08;0.70;;;18.00;92.10;;;;;;4990628;28;20027;-65
2021/08/08 07:31:20;;;;;;;1.42;0.80;;;18.50;91.90;;;;;;4989637;28;20041;-66
2021/08/08 07:33:46;;;;;;;0.55;0.52;;;18.60;91.70;;;;;;4989793;28;20097;-68
2021/08/08 07:36:11;;;;;;;2.70;0.60;;;18.90;91.40;;;;;;4983646;28;20031;-65
2021/08/08 07:38:37;;;;;;;3.30;0.80;;;19.40;90.80;;;;;;4978658;28;20030;-65
2021/08/08 07:41:03;;;;;;;1.42;0.68;;;19.60;90.20;;;;;;4990855;28;20081;-68
2021/08/08 07:43:28;;;;;;;1.08;0.70;;;19.90;89.50;;;;;;4989502;28;20407;-70
2021/08/08 07:45:54;;;;;;;2.35;0.75;;;20.20;88.70;;;;;;4986275;28;20490;-65
2021/08/08 07:48:19;;;;;;;1.65;0.57;;;20.40;87.70;;;;;;4979648;28;20035;-65
2021/08/08 07:50:45;;;;;;;2.38;0.60;;;20.50;86.70;;;;;;4990081;28;20434;-65
2021/08/08 07:53:10;;;;;;;1.58;0.50;;;20.60;86.10;;;;;;4987056;28;20034;-68
2021/08/08 07:55:36;;;;;;;1.23;0.60;;;20.90;85.00;;;;;;4988319;28;20037;-65
2021/08/08 07:58:02;;;;;;;4.97;0.60;;;21.20;84.00;;;;;;4988215;28;20110;-67
2021/08/08 08:00:27;;;;;;;1.73;0.55;;;21.40;83.20;;;;;;4990000;28;20040;-67
2021/08/08 08:02:53;;;;;;;1.42;0.70;;;21.80;82.30;;;;;;4980687;28;20050;-67
2021/08/08 08:05:18;;;;;;;1.27;0.50;;;22.10;81.00;;;;;;4989757;28;20483;-67
2021/08/08 08:07:44;;;;;;;0.88;0.68;;;22.20;79.90;;;;;;4971580;28;20038;-66
2021/08/08 08:10:10;;;;;;;2.85;0.50;;;22.30;79.60;;;;;;4989895;28;20021;-66
2021/08/08 08:12:38;;;;;;;0.65;0.45;;;22.60;78.70;;;;;;4990261;28;20033;-67
2021/08/08 08:15:04;;;;;;;1.63;0.50;;;23.00;78.30;;;;;;4991539;28;20030;-68
2021/08/08 08:17:29;;;;;;;1.20;0.43;;;22.40;78.20;;;;;;4993531;28;20029;-68
2021/08/08 08:19:55;;;;;;;2.67;0.60;;;21.70;79.90;;;;;;4987690;28;20035;-67
2021/08/08 08:22:20;;;;;;;2.35;0.70;;;21.10;80.50;;;;;;4994746;28;20023;-66
2021/08/08 08:24:46;;;;;;;0.95;0.60;;;20.60;81.00;;;;;;4989379;28;20768;-67
2021/08/08 08:27:12;;;;;;;1.23;0.60;;;20.70;80.70;;;;;;4992890;28;20502;-70
2021/08/08 08:29:38;;;;;;;4.30;0.60;;;20.40;81.60;;;;;;4994076;28;20121;-69
2021/08/08 08:32:05;;;;;;;1.75;0.60;;;20.10;81.70;;;;;;4990500;28;20046;-67
2021/08/08 08:34:30;;;;;;;1.38;0.90;;;19.80;82.20;;;;;;4984853;28;20100;-67
2021/08/08 08:36:56;;;;;;;0.80;0.60;;;20.30;81.60;;;;;;4992875;28;20494;-67
2021/08/08 08:39:21;;;;;;;0.90;0.43;;;21.30;79.30;;;;;;4993111;28;20356;-66
2021/08/08 08:41:52;;;;;;;2.20;0.70;;;21.30;79.20;;;;;;4993482;28;20574;-67
2021/08/08 08:44:19;;;;;;;1.38;0.70;;;22.00;77.70;;;;;;4989895;28;20395;-69
2021/08/08 08:46:47;;;;;;;2.42;0.70;;;22.90;75.70;;;;;;4992716;28;20490;-66
2021/08/08 08:49:17;;;;;;;1.48;0.68;;;22.20;76.70;;;;;;4988950;28;20046;-67
2021/08/08 08:51:51;;;;;;;1.73;0.65;;;22.50;76.40;;;;;;4989352;28;20030;-67
2021/08/08 08:54:18;;;;;;;1.63;0.75;;;22.20;75.70;;;;;;4987858;28;20027;-69
2021/08/08 08:56:44;;;;;;;2.47;0.70;;;21.50;76.30;;;;;;4995736;28;20030;-67
2021/08/08 08:59:11;;;;;;;3.67;0.75;;;21.10;76.20;;;;;;4993366;28;20076;-67
2021/08/08 09:01:37;;;;;;;1.70;0.70;;;20.60;77.30;;;;;;4992639;28;20055;-69
2021/08/08 09:04:03;;;;;;;0.40;0.40;;;20.50;77.40;;;;;;4988221;28;20033;-71
2021/08/08 09:06:28;;;;;;;3.78;0.65;;;20.20;77.70;;;;;;4991319;28;20033;-68
2021/08/08 09:08:54;;;;;;;2.03;0.70;;;20.00;78.00;;;;;;4991344;28;20027;-67
2021/08/08 09:11:20;;;;;;;3.67;0.98;;;19.90;78.30;;;;;;4989036;28;20097;-66
2021/08/08 09:13:57;;;;;;;1.80;0.57;;;20.60;77.80;;;;;;4987515;28;20029;-67
2021/08/08 09:16:24;;;;;;;5.40;0.73;;;21.40;74.20;;;;;;4990664;28;20104;-67
2021/08/08 09:18:58;;;;;;;1.58;0.68;;;21.30;74.90;;;;;;5005193;28;20556;-67
2021/08/08 09:21:24;;;;;;;3.63;0.80;;;21.20;75.20;;;;;;4986690;28;20448;-67
2021/08/08 09:23:55;;;;;;;5.25;0.77;;;20.90;76.10;;;;;;4982346;28;20656;-66
2021/08/08 09:26:27;;;;;;;3.42;1.00;;;20.50;75.80;;;;;;4991194;28;20033;-70
2021/08/08 09:29:02;;;;;;;;;;;20.30;76.30;;;;;;4993668;28;20026;-71
2021/08/08 09:31:28;;;;;;;2.80;0.70;;;20.10;77.60;;;;;;4992970;28;19913;-66
2021/08/08 09:33:53;;;;;;;1.77;0.70;;;20.00;78.10;;;;;;4993153;28;20501;-70
2021/08/08 09:36:19;;;;;;;2.15;0.80;;;19.90;77.30;;;;;;4990586;28;20130;-69
2021/08/08 09:38:45;;;;;;;2.80;0.90;;;19.70;77.30;;;;;;4994701;28;20030;-66
2021/08/08 09:41:11;;;;;;;4.70;0.93;;;19.50;77.90;;;;;;4991213;28;20063;-66
2021/08/08 09:43:36;;;;;;;1.55;0.70;;;19.40;78.10;;;;;;4990586;28;20038;-66
2021/08/08 09:46:02;;;;;;;1.95;0.70;;;19.30;78.10;;;;;;4991139;28;20164;-65
2021/08/08 09:48:37;;;;;;;0.70;0.70;;;19.20;78.40;;;;;;4994223;28;20034;-69
2021/08/08 09:51:08;;;;;;;4.53;1.38;;;19.10;78.60;;;;;;4984600;28;20031;-65
2021/08/08 09:53:33;;;;;;;3.40;0.73;;;19.00;78.80;;;;;;4993130;28;20032;-71
2021/08/08 09:56:00;;;;;;;1.40;0.70;;;18.90;79.10;;;;;;4990275;28;20423;-65
2021/08/08 09:58:27;;;;;;;2.22;0.80;;;19.10;78.80;;;;;;4991269;28;20041;-66
2021/08/08 10:01:02;;;;;;;1.65;0.70;;;19.20;78.40;;;;;;4987662;28;20039;-66
2021/08/08 10:03:28;;;;;;;2.38;0.70;;;19.20;78.20;;;;;;4987318;28;20595;-66
2021/08/08 10:05:55;;;;;;;1.05;0.57;;;19.20;78.30;;;;;;4991011;28;20030;-65
2021/08/08 10:08:22;;;;;;;2.80;0.80;;;19.30;77.90;;;;;;4992555;28;20022;-67
2021/08/08 10:10:49;;;;;;;1.35;0.60;;;19.80;78.80;;;;;;4995448;28;20037;-68
2021/08/08 10:13:37;;;;;;;1.33;0.80;;;20.10;78.70;;;;;;4995693;28;20030;-67
2021/08/08 10:16:05;;;;;;;3.15;0.88;;;20.50;77.90;;;;;;4990248;28;20054;-66
2021/08/08 10:18:41;;;;;;;2.70;0.77;;;20.80;77.70;;;;;;4991879;28;20387;-66
2021/08/08 10:21:08;;;;;;;1.25;0.65;;;21.00;76.70;;;;;;4985314;28;20038;-66
2021/08/08 10:23:36;;;;;;;1.10;0.70;;;21.30;76.70;;;;;;4992137;28;20486;-67
2021/08/08 10:26:02;;;;;;;1.80;0.68;;;21.50;76.60;;;;;;4989634;28;20096;-66
2021/08/08 10:28:29;;;;;;;3.22;0.90;;;21.70;75.50;;;;;;4987992;28;20046;-67
2021/08/08 10:30:58;;;;;;;2.45;0.70;;;21.70;74.00;;;;;;4992202;28;20445;-66
2021/08/08 10:33:24;;;;;;;4.55;0.90;;;21.60;73.20;;;;;;4991545;28;20037;-67
2021/08/08 10:35:51;;;;;;;1.42;0.75;;;21.60;73.60;;;;;;4988348;28;20026;-66
2021/08/08 10:38:16;;;;;;;3.83;1.25;;;21.50;73.80;;;;;;4974163;28;20027;-67
2021/08/08 10:40:44;;;;;;;1.38;0.73;;;21.50;73.00;;;;;;4990006;28;20570;-68
2021/08/08 10:43:23;;;;;;;5.05;0.82;;;21.50;73.10;;;;;;4990257;28;20026;-66
2021/08/08 10:45:48;;;;;;;1.90;0.60;;;21.40;71.10;;;;;;4983305;28;20072;-67
2021/08/08 10:48:14;;;;;;;2.95;0.93;;;21.30;71.70;;;;;;5011060;23;20462;-90
2021/08/08 10:50:49;;;;;;;2.15;0.77;;;21.30;72.30;;;;;;4971132;28;20549;-89
2021/08/08 10:53:30;;;;;;;4.35;1.08;;;21.30;71.70;;;;;;4970982;28;20026;-91
2021/08/08 10:56:12;;;;;;;4.18;1.10;;;21.30;71.20;;;;;;4981292;28;20114;-89
2021/08/08 10:58:40;;;;;;;4.28;0.80;;;21.20;71.70;;;;;;4979062;28;20401;-89
2021/08/08 11:01:20;;;;;;;3.58;1.00;;;21.20;72.70;;;;;;4980892;28;20046;-89
2021/08/08 11:03:57;;;;;;;3.03;0.80;;;21.10;72.20;;;;;;4990784;28;20091;-89
2021/08/08 11:06:28;;;;;;;1.38;0.80;;;21.00;72.60;;;;;;4977064;28;20034;-89
2021/08/08 11:08:59;;;;;;;3.85;1.05;;;20.90;73.30;;;;;;4978561;28;20041;-90
2021/08/08 11:11:26;;;;;;;6.47;1.00;;;20.70;73.40;;;;;;4979239;28;20030;-90
2021/08/08 11:14:09;;;;;;;2.90;0.80;;;20.60;73.90;;;;;;4980236;28;20657;-91
2021/08/08 11:16:34;;;;;;;2.22;1.05;;;20.70;74.00;;;;;;4980938;28;20038;-91
2021/08/08 11:19:01;;;;;;;3.13;1.15;;;20.70;74.80;;;;;;4982457;28;20146;-89
2021/08/08 11:21:27;;;;;;;3.97;0.98;;;20.80;75.00;;;;;;4981081;28;20394;-90
2021/08/08 11:23:57;;;;;;;2.55;0.80;;;20.90;74.90;;;;;;4992326;28;20046;-90
2021/08/08 11:26:23;;;;;;;2.90;0.90;;;20.90;74.30;;;;;;4978764;28;20048;-89
2021/08/08 11:29:00;;;;;;;2.60;0.80;;;20.90;74.30;;;;;;4978675;28;20022;-89
2021/08/08 11:31:28;;;;;;;2.45;0.80;;;21.00;74.80;;;;;;4984475;28;20018;-89
2021/08/08 11:34:00;;;;;;;2.90;1.05;;;21.00;74.80;;;;;;4982841;28;20041;-89
2021/08/08 11:36:27;;;;;;;4.30;0.97;;;21.00;74.00;;;;;;4982690;28;20019;-89
2021/08/08 11:38:55;;;;;;;0.95;0.68;;;21.10;74.10;;;;;;4982779;28;20065;-89
2021/08/08 11:41:22;;;;;;;4.20;0.95;;;21.00;73.10;;;;;;4986083;28;20069;-88
2021/08/08 11:44:01;;;;;;;2.10;0.80;;;20.90;72.90;;;;;;4983725;28;20053;-90
2021/08/08 11:46:26;;;;;;;2.38;0.80;;;20.80;72.50;;;;;;4984630;28;20574;-90
2021/08/08 11:48:52;;;;;;;5.40;1.00;;;20.70;72.30;;;;;;4986111;28;20065;-91
2021/08/08 11:51:20;;;;;;;1.73;0.90;;;20.80;72.50;;;;;;4994465;28;20089;-88
2021/08/08 11:53:56;;;;;;;2.35;0.90;;;20.70;72.40;;;;;;4999702;28;20022;-93
2021/08/08 11:56:30;;;;;;;2.97;0.80;;;20.80;72.10;;;;;;4997699;28;20030;-92
2021/08/08 11:58:57;;;;;;;26.15;18.80;;;20.70;72.00;;;;;;4993012;28;20117;-92
2021/08/08 12:01:24;;;;;;;5.03;2.72;;;20.60;72.80;;;;;;4975120;28;20033;-91
2021/08/08 12:03:51;;;;;;;3.40;1.20;;;20.40;73.50;;;;;;4983279;28;20031;-88
2021/08/08 12:06:24;;;;;;;1.30;0.73;;;20.30;73.90;;;;;;4978004;28;20026;-90
2021/08/08 12:08:52;;;;;;;2.35;1.05;;;20.20;74.00;;;;;;4987413;28;20029;-90
2021/08/08 12:11:20;;;;;;;1.17;0.90;;;20.00;74.00;;;;;;4992352;28;20030;-89
2021/08/08 12:14:07;;;;;;;2.97;0.80;;;20.00;74.50;;;;;;4989902;28;20026;-91
2021/08/08 12:16:37;;;;;;;0.82;0.60;;;19.90;74.00;;;;;;4989116;28;20030;-91
2021/08/08 12:19:07;;;;;;;2.15;0.98;;;19.90;74.20;;;;;;4989532;28;20023;-91
2021/08/08 12:21:40;;;;;;;4.50;0.80;;;19.80;74.10;;;;;;4989716;28;20033;-91
2021/08/08 12:24:14;;;;;;;2.47;1.05;;;19.80;74.00;;;;;;4997363;28;20044;-90
2021/08/08 12:26:49;;;;;;;3.80;1.02;;;19.70;74.00;;;;;;4978993;28;20037;-89
2021/08/08 12:29:15;;;;;;;1.10;0.80;;;19.70;74.00;;;;;;4990547;28;20026;-90
2021/08/08 12:31:44;;;;;;;3.88;1.00;;;19.70;74.60;;;;;;4982391;28;20093;-91
2021/08/08 12:34:10;;;;;;;2.35;1.00;;;19.80;74.30;;;;;;4981364;28;20037;-91
2021/08/08 12:36:40;;;;;;;3.28;0.80;;;19.90;74.10;;;;;;4986945;28;20026;-90
2021/08/08 12:39:07;;;;;;;1.88;0.88;;;19.90;73.70;;;;;;4986399;28;20041;-90
2021/08/08 12:41:38;;;;;;;1.02;0.80;;;19.90;73.80;;;;;;4982159;28;20038;-89
2021/08/08 12:44:04;;;;;;;2.15;0.80;;;19.80;73.10;;;;;;4982566;28;20113;-91
2021/08/08 12:46:39;;;;;;;4.05;0.85;;;19.70;73.60;;;;;;4980611;28;20349;-90
2021/08/08 12:49:07;;;;;;;35.85;23.80;;;19.50;73.90;;;;;;4979349;28;20034;-89